createdAt,value
2022-10-27T00:00:36.604Z,0
2022-10-27T00:01:37.250Z,0
2022-10-27T00:02:37.881Z,0
2022-10-27T00:03:38.434Z,0
2022-10-27T00:04:39.028Z,0
2022-10-27T00:05:39.620Z,0
2022-10-27T00:06:40.214Z,0
2022-10-27T00:07:40.830Z,0
2022-10-27T00:08:41.442Z,0
2022-10-27T00:09:42.037Z,0
2022-10-27T00:10:42.652Z,0
2022-10-27T00:11:43.268Z,0
2022-10-27T00:12:43.812Z,0
2022-10-27T00:13:44.408Z,0
2022-10-27T00:14:45.002Z,0
2022-10-27T00:15:45.614Z,0
2022-10-27T00:16:46.209Z,0
2022-10-27T00:17:46.806Z,0
2022-10-27T00:18:47.398Z,0
2022-10-27T00:19:48.011Z,0
2022-10-27T00:20:48.601Z,0
2022-10-27T00:21:49.199Z,0
2022-10-27T00:22:49.877Z,0
2022-10-27T00:23:50.607Z,0
2022-10-27T00:24:51.200Z,0
2022-10-27T00:25:51.795Z,0
2022-10-27T00:26:52.388Z,0
2022-10-27T00:27:52.980Z,0
2022-10-27T00:28:53.574Z,0
2022-10-27T00:29:54.168Z,0
2022-10-27T00:30:55.182Z,0
2022-10-27T00:31:55.690Z,0
2022-10-27T00:32:56.281Z,0
2022-10-27T00:33:56.879Z,0
2022-10-27T00:34:57.470Z,0
2022-10-27T00:35:58.064Z,0
2022-10-27T00:36:58.655Z,0
2022-10-27T00:37:59.249Z,0
2022-10-27T00:38:59.843Z,0
2022-10-27T00:40:00.438Z,0
2022-10-27T00:41:01.028Z,0
2022-10-27T00:42:01.623Z,0
2022-10-27T00:43:02.216Z,0
2022-10-27T00:44:02.809Z,0
2022-10-27T00:46:04.020Z,0
2022-10-27T00:47:04.614Z,0
2022-10-27T00:48:05.207Z,0
2022-10-27T00:49:05.807Z,0
2022-10-27T00:50:06.395Z,0
2022-10-27T00:51:06.988Z,0
2022-10-27T00:52:07.580Z,0
2022-10-27T00:53:08.237Z,0
2022-10-27T00:54:08.780Z,0
2022-10-27T00:55:09.377Z,0
2022-10-27T00:56:09.965Z,0
2022-10-27T00:57:10.565Z,0
2022-10-27T00:58:11.155Z,0
2022-10-27T00:59:11.750Z,0
2022-10-27T01:00:12.342Z,0
2022-10-27T01:01:13.067Z,0
2022-10-27T01:02:13.721Z,0
2022-10-27T01:03:14.317Z,0
2022-10-27T01:04:14.911Z,0
2022-10-27T01:05:15.505Z,0
2022-10-27T01:06:16.102Z,0
2022-10-27T01:07:16.691Z,0
2022-10-27T01:08:17.286Z,0
2022-10-27T01:09:17.881Z,0
2022-10-27T01:10:18.473Z,0
2022-10-27T01:11:19.069Z,0
2022-10-27T01:12:19.693Z,0
2022-10-27T01:13:20.264Z,0
2022-10-27T01:14:20.856Z,0
2022-10-27T01:15:21.452Z,0
2022-10-27T01:16:22.046Z,0
2022-10-27T01:17:22.647Z,0
2022-10-27T01:18:23.231Z,0
2022-10-27T01:19:23.822Z,0
2022-10-27T01:20:24.416Z,0
2022-10-27T01:21:25.011Z,0
2022-10-27T01:22:25.604Z,0
2022-10-27T01:23:26.197Z,0
2022-10-27T01:24:26.789Z,0
2022-10-27T01:25:27.388Z,0
2022-10-27T01:26:27.978Z,0
2022-10-27T01:27:28.571Z,0
2022-10-27T01:28:29.162Z,0
2022-10-27T01:29:29.756Z,0
2022-10-27T01:30:30.348Z,0
2022-10-27T01:31:30.942Z,0
2022-10-27T01:32:31.536Z,0
2022-10-27T01:33:32.130Z,0
2022-10-27T01:34:32.742Z,0
2022-10-27T01:35:33.336Z,0
2022-10-27T01:36:33.928Z,0
2022-10-27T01:37:34.523Z,0
2022-10-27T01:38:35.114Z,0
2022-10-27T01:39:35.709Z,0
2022-10-27T01:40:36.302Z,0
2022-10-27T01:41:36.932Z,0
2022-10-27T01:42:37.511Z,0
2022-10-27T01:43:38.106Z,0
2022-10-27T01:44:38.702Z,0
2022-10-27T01:45:39.312Z,0
2022-10-27T01:46:39.903Z,0
2022-10-27T01:47:40.497Z,0
2022-10-27T01:48:41.090Z,0
2022-10-27T01:49:41.704Z,0
2022-10-27T01:50:50.939Z,0
2022-10-27T01:51:43.883Z,0
2022-10-27T01:52:44.490Z,0
2022-10-27T01:53:45.072Z,0
2022-10-27T01:54:45.664Z,0
2022-10-27T01:55:46.260Z,0
2022-10-27T01:56:46.854Z,0
2022-10-27T01:57:47.449Z,0
2022-10-27T01:58:48.044Z,0
2022-10-27T01:59:48.655Z,0
2022-10-27T02:00:49.341Z,0
2022-10-27T02:01:49.855Z,0
2022-10-27T02:02:50.732Z,0
2022-10-27T02:03:51.479Z,0
2022-10-27T02:04:52.072Z,0
2022-10-27T02:05:52.664Z,0
2022-10-27T02:06:53.254Z,0
2022-10-27T02:07:53.851Z,0
2022-10-27T02:08:54.442Z,0
2022-10-27T02:09:55.039Z,0
2022-10-27T02:10:55.630Z,0
2022-10-27T02:11:56.245Z,0
2022-10-27T02:12:56.836Z,0
2022-10-27T02:13:57.430Z,0
2022-10-27T02:14:58.023Z,0
2022-10-27T02:15:58.616Z,0
2022-10-27T02:16:59.211Z,0
2022-10-27T02:17:59.803Z,0
2022-10-27T02:19:00.394Z,0
2022-10-27T02:20:00.989Z,0
2022-10-27T02:22:02.174Z,0
2022-10-27T02:23:02.766Z,0
2022-10-27T02:24:03.360Z,0
2022-10-27T02:25:03.953Z,0
2022-10-27T02:26:04.548Z,0
2022-10-27T02:27:05.140Z,0
2022-10-27T02:28:05.733Z,0
2022-10-27T02:29:06.323Z,0
2022-10-27T02:30:06.919Z,0
2022-10-27T02:31:07.516Z,0
2022-10-27T02:32:08.104Z,0
2022-10-27T02:33:08.696Z,0
2022-10-27T02:34:09.291Z,0
2022-10-27T02:35:09.883Z,0
2022-10-27T02:36:10.476Z,0
2022-10-27T02:37:11.069Z,0
2022-10-27T02:38:11.666Z,0
2022-10-27T02:39:12.258Z,0
2022-10-27T02:40:12.855Z,0
2022-10-27T02:41:13.446Z,0
2022-10-27T02:42:14.042Z,0
2022-10-27T02:43:14.635Z,0
2022-10-27T02:44:15.231Z,0
2022-10-27T02:45:15.823Z,0
2022-10-27T02:46:16.417Z,0
2022-10-27T02:47:17.008Z,0
2022-10-27T02:48:17.604Z,0
2022-10-27T02:49:18.200Z,0
2022-10-27T02:50:18.793Z,0
2022-10-27T02:51:19.406Z,0
2022-10-27T02:52:20.000Z,0
2022-10-27T02:53:20.592Z,0
2022-10-27T02:54:21.190Z,0
2022-10-27T02:55:21.781Z,0
2022-10-27T02:56:22.377Z,0
2022-10-27T02:57:22.970Z,0
2022-10-27T02:58:23.563Z,0
2022-10-27T02:59:24.154Z,0
2022-10-27T03:00:24.797Z,0
2022-10-27T03:01:25.561Z,0
2022-10-27T03:02:26.195Z,0
2022-10-27T03:03:26.777Z,0
2022-10-27T03:04:27.373Z,0
2022-10-27T03:05:27.964Z,0
2022-10-27T03:06:28.557Z,0
2022-10-27T03:07:29.148Z,0
2022-10-27T03:08:29.762Z,0
2022-10-27T03:09:30.354Z,0
2022-10-27T03:10:30.947Z,0
2022-10-27T03:11:31.542Z,0
2022-10-27T03:12:32.153Z,0
2022-10-27T03:13:32.745Z,0
2022-10-27T03:14:33.347Z,0
2022-10-27T03:15:33.931Z,0
2022-10-27T03:16:34.524Z,0
2022-10-27T03:17:35.119Z,0
2022-10-27T03:18:35.711Z,0
2022-10-27T03:19:36.304Z,0
2022-10-27T03:20:36.899Z,0
2022-10-27T03:21:37.493Z,0
2022-10-27T03:22:38.086Z,0
2022-10-27T03:23:38.682Z,0
2022-10-27T03:24:39.271Z,0
2022-10-27T03:25:39.886Z,0
2022-10-27T03:26:40.481Z,0
2022-10-27T03:27:41.075Z,0
2022-10-27T03:28:41.668Z,0
2022-10-27T03:29:42.318Z,0
2022-10-27T03:30:42.879Z,0
2022-10-27T03:31:43.471Z,0
2022-10-27T03:32:44.069Z,0
2022-10-27T03:33:44.660Z,0
2022-10-27T03:34:45.254Z,0
2022-10-27T03:35:45.846Z,0
2022-10-27T03:36:46.442Z,0
2022-10-27T03:37:47.036Z,0
2022-10-27T03:38:47.630Z,0
2022-10-27T03:39:48.227Z,0
2022-10-27T03:40:48.818Z,0
2022-10-27T03:41:49.412Z,0
2022-10-27T03:42:50.436Z,0
2022-10-27T03:43:51.107Z,0
2022-10-27T03:44:51.700Z,0
2022-10-27T03:45:54.184Z,0
2022-10-27T03:46:52.961Z,0
2022-10-27T03:47:53.554Z,0
2022-10-27T03:48:54.149Z,0
2022-10-27T03:49:54.761Z,0
2022-10-27T03:50:55.355Z,0
2022-10-27T03:51:55.969Z,0
2022-10-27T03:52:56.585Z,0
2022-10-27T03:53:57.174Z,0
2022-10-27T03:54:57.771Z,0
2022-10-27T03:55:58.367Z,0
2022-10-27T03:56:58.956Z,0
2022-10-27T03:57:59.550Z,0
2022-10-27T03:59:00.145Z,0
2022-10-27T04:00:00.741Z,0
2022-10-27T04:01:01.381Z,0
2022-10-27T04:02:04.788Z,0
2022-10-27T04:03:03.519Z,0
2022-10-27T04:04:04.107Z,0
2022-10-27T04:05:04.700Z,0
2022-10-27T04:06:05.292Z,0
2022-10-27T04:07:05.888Z,0
2022-10-27T04:08:06.483Z,0
2022-10-27T04:09:07.078Z,0
2022-10-27T04:10:07.669Z,0
2022-10-27T04:11:08.263Z,0
2022-10-27T04:12:08.854Z,0
2022-10-27T04:13:09.468Z,0
2022-10-27T04:14:10.060Z,0
2022-10-27T04:15:10.652Z,0
2022-10-27T04:16:11.246Z,0
2022-10-27T04:17:11.839Z,0
2022-10-27T04:18:12.435Z,0
2022-10-27T04:19:13.028Z,0
2022-10-27T04:20:13.626Z,0
2022-10-27T04:21:14.214Z,0
2022-10-27T04:22:14.806Z,0
2022-10-27T04:23:15.402Z,0
2022-10-27T04:24:15.994Z,0
2022-10-27T04:25:16.592Z,0
2022-10-27T04:26:17.181Z,0
2022-10-27T04:27:17.775Z,0
2022-10-27T04:28:18.368Z,0
2022-10-27T04:29:18.960Z,0
2022-10-27T04:30:19.552Z,0
2022-10-27T04:31:20.147Z,0
2022-10-27T04:32:20.746Z,0
2022-10-27T04:33:24.968Z,0
2022-10-27T04:34:22.944Z,0
2022-10-27T04:35:23.587Z,0
2022-10-27T04:36:24.134Z,0
2022-10-27T04:37:24.729Z,0
2022-10-27T04:38:25.330Z,0
2022-10-27T04:39:25.918Z,0
2022-10-27T04:40:26.513Z,0
2022-10-27T04:41:27.111Z,0
2022-10-27T04:42:27.703Z,0
2022-10-27T04:43:28.299Z,0
2022-10-27T04:44:28.894Z,0
2022-10-27T04:45:29.490Z,0
2022-10-27T04:46:30.086Z,0
2022-10-27T04:47:30.697Z,0
2022-10-27T04:48:31.303Z,0
2022-10-27T04:49:31.907Z,0
2022-10-27T04:50:32.506Z,0
2022-10-27T04:51:33.099Z,0
2022-10-27T04:52:33.695Z,0
2022-10-27T04:53:34.294Z,0
2022-10-27T04:54:34.890Z,0
2022-10-27T04:55:35.485Z,0
2022-10-27T04:56:36.080Z,0
2022-10-27T04:57:36.677Z,0
2022-10-27T04:58:37.267Z,0
2022-10-27T04:59:37.862Z,0
2022-10-27T05:00:38.456Z,0
2022-10-27T05:01:39.116Z,0
2022-10-27T05:02:39.737Z,0
2022-10-27T05:03:40.285Z,0
2022-10-27T05:04:40.880Z,0
2022-10-27T05:05:41.473Z,0
2022-10-27T05:06:42.070Z,0
2022-10-27T05:07:42.663Z,0
2022-10-27T05:08:43.289Z,0
2022-10-27T05:09:43.858Z,0
2022-10-27T05:10:44.450Z,0
2022-10-27T05:11:45.044Z,0
2022-10-27T05:12:45.638Z,0
2022-10-27T05:13:46.235Z,0
2022-10-27T05:14:46.847Z,0
2022-10-27T05:15:47.442Z,0
2022-10-27T05:16:48.035Z,0
2022-10-27T05:17:48.806Z,0
2022-10-27T05:18:49.241Z,0
2022-10-27T05:19:49.835Z,0
2022-10-27T05:20:50.432Z,0
2022-10-27T05:21:51.026Z,0
2022-10-27T05:22:51.615Z,0
2022-10-27T05:23:52.210Z,0
2022-10-27T05:24:52.805Z,0
2022-10-27T05:25:53.401Z,0
2022-10-27T05:26:53.997Z,0
2022-10-27T05:27:54.915Z,0
2022-10-27T05:28:55.660Z,0
2022-10-27T05:29:56.254Z,0
2022-10-27T05:30:56.848Z,0
2022-10-27T05:31:57.443Z,0
2022-10-27T05:32:58.040Z,4
2022-10-27T05:34:59.255Z,0
2022-10-27T05:35:59.848Z,4
2022-10-27T05:37:00.443Z,4
2022-10-27T05:38:01.037Z,4
2022-10-27T05:39:01.635Z,4
2022-10-27T05:40:02.226Z,4
2022-10-27T05:41:02.822Z,8
2022-10-27T05:42:03.421Z,8
2022-10-27T05:43:04.018Z,8
2022-10-27T05:44:04.607Z,12
2022-10-27T05:45:05.204Z,16
2022-10-27T05:46:05.804Z,16
2022-10-27T05:47:06.395Z,20
2022-10-27T05:48:06.989Z,20
2022-10-27T05:49:07.590Z,24
2022-10-27T05:50:08.198Z,32
2022-10-27T05:51:08.808Z,36
2022-10-27T05:52:09.393Z,44
2022-10-27T05:53:09.990Z,52
2022-10-27T05:54:10.591Z,64
2022-10-27T05:55:11.184Z,76
2022-10-27T05:56:11.779Z,84
2022-10-27T05:57:12.377Z,100
2022-10-27T05:58:12.973Z,112
2022-10-27T05:59:13.574Z,132
2022-10-27T06:00:15.611Z,148
2022-10-27T06:01:15.829Z,172
2022-10-27T06:02:16.506Z,204
2022-10-27T06:03:17.075Z,232
2022-10-27T06:04:17.671Z,264
2022-10-27T06:05:18.289Z,296
2022-10-27T06:06:18.888Z,332
2022-10-27T06:08:20.097Z,408
2022-10-27T06:09:20.687Z,444
2022-10-27T06:10:21.286Z,480
2022-10-27T06:11:21.905Z,524
2022-10-27T06:12:22.501Z,568
2022-10-27T06:13:23.102Z,620
2022-10-27T06:14:26.782Z,676
2022-10-27T06:15:25.313Z,744
2022-10-27T06:16:25.910Z,812
2022-10-27T06:17:26.509Z,888
2022-10-27T06:18:27.106Z,968
2022-10-27T06:19:27.708Z,1048
2022-10-27T06:20:28.370Z,1132
2022-10-27T06:21:28.969Z,1212
2022-10-27T06:22:29.569Z,1292
2022-10-27T06:23:30.170Z,1376
2022-10-27T06:24:30.768Z,1448
2022-10-27T06:25:31.366Z,1540
2022-10-27T06:26:31.963Z,1620
2022-10-27T06:27:32.563Z,1700
2022-10-27T06:28:33.159Z,1780
2022-10-27T06:29:33.757Z,1860
2022-10-27T06:30:34.355Z,1948
2022-10-27T06:31:34.957Z,2020
2022-10-27T06:32:37.143Z,2096
2022-10-27T06:33:37.165Z,2176
2022-10-27T06:34:37.764Z,2260
2022-10-27T06:35:38.363Z,2340
2022-10-27T06:36:38.960Z,2432
2022-10-27T06:37:39.561Z,2520
2022-10-27T06:38:44.289Z,2616
2022-10-27T06:39:41.771Z,2712
2022-10-27T06:41:42.975Z,2924
2022-10-27T06:42:49.608Z,3036
2022-10-27T06:43:45.165Z,3156
2022-10-27T06:44:45.784Z,3272
2022-10-27T06:45:46.383Z,3388
2022-10-27T06:46:46.982Z,3508
2022-10-27T06:47:47.579Z,3632
2022-10-27T06:48:48.177Z,3760
2022-10-27T06:49:48.779Z,3880
2022-10-27T06:50:49.377Z,4000
2022-10-27T06:51:49.974Z,4104
2022-10-27T06:52:50.887Z,4208
2022-10-27T06:53:51.541Z,4312
2022-10-27T06:54:54.437Z,4412
2022-10-27T06:55:53.733Z,4544
2022-10-27T06:56:54.329Z,4680
2022-10-27T06:57:55.258Z,4840
2022-10-27T06:58:55.562Z,5000
2022-10-27T06:59:56.163Z,5156
2022-10-27T07:00:56.763Z,5292
2022-10-27T07:01:57.407Z,5440
2022-10-27T07:02:58.106Z,5612
2022-10-27T07:03:58.672Z,5804
2022-10-27T07:04:59.271Z,6012
2022-10-27T07:05:59.872Z,6188
2022-10-27T07:07:00.469Z,6356
2022-10-27T07:08:01.088Z,6532
2022-10-27T07:09:04.514Z,6732
2022-10-27T07:10:03.301Z,6948
2022-10-27T07:11:03.900Z,7156
2022-10-27T07:12:04.520Z,7316
2022-10-27T07:13:05.138Z,7444
2022-10-27T07:14:05.741Z,7568
2022-10-27T07:15:06.336Z,7648
2022-10-27T07:16:06.937Z,7712
2022-10-27T07:17:07.533Z,7800
2022-10-27T07:18:08.137Z,7932
2022-10-27T07:19:08.732Z,8096
2022-10-27T07:20:09.335Z,8260
2022-10-27T07:21:09.930Z,8348
2022-10-27T07:22:10.526Z,8336
2022-10-27T07:23:11.122Z,8320
2022-10-27T07:24:14.328Z,8364
2022-10-27T07:25:13.313Z,8396
2022-10-27T07:26:13.918Z,8432
2022-10-27T07:27:14.538Z,8472
2022-10-27T07:28:15.135Z,8464
2022-10-27T07:29:15.730Z,8452
2022-10-27T07:30:16.333Z,8444
2022-10-27T07:31:16.950Z,8448
2022-10-27T07:32:17.567Z,8456
2022-10-27T07:33:18.185Z,8448
2022-10-27T07:34:18.785Z,8488
2022-10-27T07:35:19.381Z,8552
2022-10-27T07:36:19.981Z,8608
2022-10-27T07:37:20.578Z,8620
2022-10-27T07:38:21.176Z,8600
2022-10-27T07:39:21.775Z,8572
2022-10-27T07:40:22.605Z,8528
2022-10-27T07:41:23.222Z,8516
2022-10-27T07:42:23.839Z,8508
2022-10-27T07:43:24.423Z,8524
2022-10-27T07:44:25.036Z,8516
2022-10-27T07:45:25.618Z,8556
2022-10-27T07:46:26.217Z,8524
2022-10-27T07:47:26.815Z,8476
2022-10-27T07:48:27.413Z,8472
2022-10-27T07:49:28.011Z,8484
2022-10-27T07:50:28.905Z,8516
2022-10-27T07:51:29.521Z,8508
2022-10-27T07:52:30.123Z,8492
2022-10-27T07:53:30.720Z,8512
2022-10-27T07:54:31.321Z,8512
2022-10-27T07:55:31.918Z,8520
2022-10-27T07:56:32.516Z,8536
2022-10-27T07:57:33.114Z,8596
2022-10-27T07:58:33.712Z,8636
2022-10-27T07:59:34.319Z,8736
2022-10-27T08:00:34.934Z,8784
2022-10-27T08:01:35.660Z,8852
2022-10-27T08:02:36.334Z,8912
2022-10-27T08:04:38.384Z,9228
2022-10-27T08:05:38.983Z,9388
2022-10-27T08:06:39.580Z,9576
2022-10-27T08:07:40.179Z,9672
2022-10-27T08:08:40.783Z,9832
2022-10-27T08:09:41.376Z,10196
2022-10-27T08:10:41.988Z,10444
2022-10-27T08:11:42.576Z,10140
2022-10-27T08:12:43.177Z,11244
2022-10-27T08:13:43.777Z,11708
2022-10-27T08:14:44.380Z,12212
2022-10-27T08:15:45.156Z,11996
2022-10-27T08:17:47.217Z,12240
2022-10-27T08:18:47.815Z,12096
2022-10-27T08:19:48.416Z,12268
2022-10-27T08:20:49.017Z,12640
2022-10-27T08:21:49.636Z,13796
2022-10-27T08:22:50.236Z,13856
2022-10-27T08:23:50.836Z,14072
2022-10-27T08:24:51.436Z,14060
2022-10-27T08:25:52.057Z,14264
2022-10-27T08:26:52.657Z,14048
2022-10-27T08:27:53.611Z,13732
2022-10-27T08:28:54.395Z,13596
2022-10-27T08:29:54.993Z,13564
2022-10-27T08:30:55.616Z,13932
2022-10-27T08:31:56.211Z,13896
2022-10-27T08:32:56.811Z,14068
2022-10-27T08:33:57.412Z,14236
2022-10-27T08:34:58.014Z,14056
2022-10-27T08:35:58.612Z,13744
2022-10-27T08:36:59.213Z,13940
2022-10-27T08:37:59.817Z,14488
2022-10-27T08:39:00.417Z,14744
2022-10-27T08:40:01.018Z,15220
2022-10-27T08:41:01.636Z,15572
2022-10-27T08:42:02.234Z,16080
2022-10-27T08:43:02.835Z,16960
2022-10-27T08:44:03.436Z,17440
2022-10-27T08:45:04.039Z,17632
2022-10-27T08:46:04.637Z,17952
2022-10-27T08:47:05.235Z,18272
2022-10-27T08:48:05.835Z,18592
2022-10-27T08:49:06.481Z,18656
2022-10-27T08:50:07.032Z,18688
2022-10-27T08:51:07.653Z,19392
2022-10-27T08:52:08.272Z,19968
2022-10-27T08:53:08.871Z,20864
2022-10-27T08:54:09.517Z,20384
2022-10-27T08:55:10.091Z,21856
2022-10-27T08:56:10.687Z,22848
2022-10-27T08:57:11.288Z,24416
2022-10-27T08:58:11.903Z,26304
2022-10-27T08:59:12.506Z,30400
2022-10-27T09:00:13.105Z,49792
2022-10-27T09:01:13.783Z,81984
2022-10-27T09:02:14.491Z,112320
2022-10-27T09:03:15.127Z,123584
2022-10-27T09:04:15.746Z,174272
2022-10-27T09:05:17.453Z,71488
2022-10-27T09:06:18.067Z,106912
2022-10-27T09:07:18.650Z,88224
2022-10-27T09:08:19.249Z,66624
2022-10-27T09:09:19.854Z,68992
2022-10-27T09:10:20.454Z,65664
2022-10-27T09:11:21.074Z,50464
2022-10-27T09:12:21.676Z,50240
2022-10-27T09:13:22.277Z,56736
2022-10-27T09:14:22.877Z,43264
2022-10-27T09:15:23.478Z,40704
2022-10-27T09:16:24.079Z,41152
2022-10-27T09:17:24.684Z,43008
2022-10-27T09:18:25.282Z,41760
2022-10-27T09:19:25.886Z,39296
2022-10-27T09:20:26.485Z,35776
2022-10-27T09:21:27.091Z,37376
2022-10-27T09:22:27.795Z,43744
2022-10-27T09:23:28.323Z,48096
2022-10-27T09:24:28.922Z,45088
2022-10-27T09:25:29.522Z,41664
2022-10-27T09:26:30.124Z,41024
2022-10-27T09:27:30.724Z,43104
2022-10-27T09:28:31.327Z,43232
2022-10-27T09:29:31.929Z,46560
2022-10-27T09:30:32.534Z,48640
2022-10-27T09:31:33.148Z,47424
2022-10-27T09:32:33.753Z,49120
2022-10-27T09:33:34.352Z,52192
2022-10-27T09:34:34.956Z,57056
2022-10-27T09:35:35.555Z,55904
2022-10-27T09:36:36.188Z,49504
2022-10-27T09:37:36.787Z,43424
2022-10-27T09:38:37.395Z,42432
2022-10-27T09:39:37.992Z,46496
2022-10-27T09:40:38.599Z,44032
2022-10-27T09:41:39.210Z,45568
2022-10-27T09:42:39.836Z,42464
2022-10-27T09:43:40.450Z,38752
2022-10-27T09:44:41.071Z,36512
2022-10-27T09:45:41.669Z,38784
2022-10-27T09:46:42.296Z,39712
2022-10-27T09:47:42.913Z,41792
2022-10-27T09:48:43.515Z,44128
2022-10-27T09:49:44.117Z,42944
2022-10-27T09:50:44.718Z,41568
2022-10-27T09:51:45.338Z,40832
2022-10-27T09:52:45.940Z,39936
2022-10-27T09:53:46.542Z,36832
2022-10-27T09:54:48.933Z,42656
2022-10-27T09:55:47.763Z,37248
2022-10-27T09:56:48.367Z,38528
2022-10-27T09:57:49.187Z,43616
2022-10-27T09:58:49.942Z,45824
2022-10-27T09:59:50.546Z,47424
2022-10-27T10:00:51.145Z,50752
2022-10-27T10:01:51.779Z,52320
2022-10-27T10:02:52.445Z,51456
2022-10-27T10:03:53.070Z,51904
2022-10-27T10:04:53.634Z,46944
2022-10-27T10:05:54.237Z,46368
2022-10-27T10:06:54.838Z,48160
2022-10-27T10:07:55.630Z,52992
2022-10-27T10:08:56.236Z,50048
2022-10-27T10:09:56.840Z,43136
2022-10-27T10:10:57.441Z,38784
2022-10-27T10:11:58.078Z,41376
2022-10-27T10:12:58.672Z,42432
2022-10-27T10:13:59.275Z,44032
2022-10-27T10:14:59.894Z,39808
2022-10-27T10:16:00.475Z,39392
2022-10-27T10:17:01.077Z,45504
2022-10-27T10:18:01.677Z,50400
2022-10-27T10:19:02.376Z,46048
2022-10-27T10:20:02.995Z,39808
2022-10-27T10:21:03.595Z,40128
2022-10-27T10:22:04.196Z,45952
2022-10-27T10:23:04.799Z,54880
2022-10-27T10:24:05.399Z,56448
2022-10-27T10:25:06.000Z,48640
2022-10-27T10:26:06.601Z,43296
2022-10-27T10:27:07.222Z,42784
2022-10-27T10:28:07.822Z,43008
2022-10-27T10:29:08.424Z,39840
2022-10-27T10:30:09.021Z,45440
2022-10-27T10:31:09.624Z,46496
2022-10-27T10:32:10.223Z,49248
2022-10-27T10:33:10.827Z,51552
2022-10-27T10:34:11.426Z,54048
2022-10-27T10:35:12.028Z,63136
2022-10-27T10:36:12.628Z,70080
2022-10-27T10:37:13.274Z,67808
2022-10-27T10:38:13.839Z,62336
2022-10-27T10:39:14.448Z,57856
2022-10-27T10:40:15.100Z,52160
2022-10-27T10:41:15.664Z,45696
2022-10-27T10:42:16.265Z,45312
2022-10-27T10:43:16.867Z,42976
2022-10-27T10:44:17.470Z,38816
2022-10-27T10:45:18.089Z,37760
2022-10-27T10:46:18.689Z,34112
2022-10-27T10:47:19.291Z,32448
2022-10-27T10:48:19.890Z,39808
2022-10-27T10:49:20.492Z,40320
2022-10-27T10:50:21.093Z,41152
2022-10-27T10:51:21.766Z,47808
2022-10-27T10:52:22.321Z,51936
2022-10-27T10:53:23.831Z,52768
2022-10-27T10:54:24.518Z,56128
2022-10-27T10:55:25.128Z,56192
2022-10-27T10:56:25.738Z,49088
2022-10-27T10:57:29.135Z,45440
2022-10-27T10:58:27.938Z,42112
2022-10-27T10:59:28.537Z,45472
2022-10-27T11:00:29.195Z,45536
2022-10-27T11:01:29.976Z,52352
2022-10-27T11:02:30.662Z,64448
2022-10-27T11:03:31.263Z,65792
2022-10-27T11:04:31.870Z,61440
2022-10-27T11:05:32.464Z,60320
2022-10-27T11:06:33.065Z,63424
2022-10-27T11:07:33.669Z,73632
2022-10-27T11:08:38.118Z,81440
2022-10-27T11:09:36.038Z,74688
2022-10-27T11:10:36.643Z,67360
2022-10-27T11:11:37.243Z,60000
2022-10-27T11:12:37.844Z,54880
2022-10-27T11:13:38.467Z,52064
2022-10-27T11:14:39.066Z,56736
2022-10-27T11:15:39.666Z,56224
2022-10-27T11:16:40.267Z,53856
2022-10-27T11:17:40.871Z,46656
2022-10-27T11:18:41.469Z,60416
2022-10-27T11:19:42.093Z,61056
2022-10-27T11:20:42.671Z,59072
2022-10-27T11:21:43.352Z,65344
2022-10-27T11:22:43.960Z,69312
2022-10-27T11:23:44.586Z,68768
2022-10-27T11:24:45.210Z,68864
2022-10-27T11:25:45.808Z,64640
2022-10-27T11:26:46.409Z,63360
2022-10-27T11:27:47.031Z,63168
2022-10-27T11:28:47.631Z,51584
2022-10-27T11:29:48.234Z,51392
2022-10-27T11:30:48.834Z,56672
2022-10-27T11:31:49.437Z,60704
2022-10-27T11:32:50.399Z,64928
2022-10-27T11:33:50.653Z,65792
2022-10-27T11:34:51.256Z,63680
2022-10-27T11:35:51.855Z,58752
2022-10-27T11:36:52.455Z,54592
2022-10-27T11:37:56.289Z,64000
2022-10-27T11:38:54.651Z,68992
2022-10-27T11:39:55.251Z,78624
2022-10-27T11:40:55.853Z,74208
2022-10-27T11:41:56.474Z,80864
2022-10-27T11:42:57.074Z,84128
2022-10-27T11:44:02.135Z,85504
2022-10-27T11:44:59.273Z,84256
2022-10-27T11:45:59.876Z,82624
2022-10-27T11:47:00.477Z,74656
2022-10-27T11:48:01.080Z,55168
2022-10-27T11:49:01.680Z,48320
2022-10-27T11:50:02.301Z,42080
2022-10-27T11:51:02.883Z,47264
2022-10-27T11:52:03.487Z,59264
2022-10-27T11:53:04.084Z,64256
2022-10-27T11:54:04.728Z,64384
2022-10-27T11:55:05.319Z,62176
2022-10-27T11:56:07.846Z,57952
2022-10-27T11:57:11.720Z,57088
2022-10-27T11:58:08.098Z,58464
2022-10-27T11:59:08.701Z,59712
2022-10-27T12:00:09.299Z,63008
2022-10-27T12:01:09.963Z,64448
2022-10-27T12:02:10.662Z,63232
2022-10-27T12:03:11.307Z,60512
2022-10-27T12:04:11.909Z,57056
2022-10-27T12:05:12.508Z,59168
2022-10-27T12:06:13.110Z,59808
2022-10-27T12:07:13.731Z,60960
2022-10-27T12:08:14.362Z,66944
2022-10-27T12:09:16.139Z,72704
2022-10-27T12:10:16.551Z,59936
2022-10-27T12:11:17.148Z,61760
2022-10-27T12:12:17.753Z,64896
2022-10-27T12:13:18.352Z,61184
2022-10-27T12:14:18.955Z,59104
2022-10-27T12:15:19.575Z,55488
2022-10-27T12:16:20.175Z,53280
2022-10-27T12:17:20.777Z,52832
2022-10-27T12:18:21.379Z,49856
2022-10-27T12:19:21.979Z,49504
2022-10-27T12:20:22.583Z,52160
2022-10-27T12:21:23.182Z,50304
2022-10-27T12:22:23.803Z,49568
2022-10-27T12:23:24.407Z,51168
2022-10-27T12:24:25.010Z,55616
2022-10-27T12:25:25.608Z,60288
2022-10-27T12:26:26.212Z,61120
2022-10-27T12:27:26.816Z,61664
2022-10-27T12:28:27.414Z,56640
2022-10-27T12:29:28.014Z,63520
2022-10-27T12:30:28.620Z,59136
2022-10-27T12:31:29.221Z,45280
2022-10-27T12:32:29.823Z,47520
2022-10-27T12:33:30.424Z,48576
2022-10-27T12:34:31.024Z,44736
2022-10-27T12:35:31.625Z,49056
2022-10-27T12:38:34.324Z,57568
2022-10-27T12:39:34.922Z,63616
2022-10-27T12:40:35.526Z,58560
2022-10-27T12:41:36.126Z,60256
2022-10-27T12:42:36.814Z,56160
2022-10-27T12:43:37.804Z,46816
2022-10-27T12:44:39.096Z,47840
2022-10-27T12:45:39.697Z,50720
2022-10-27T12:46:40.302Z,49120
2022-10-27T12:47:40.928Z,50656
2022-10-27T12:48:41.547Z,56768
2022-10-27T12:49:42.146Z,56576
2022-10-27T12:50:42.751Z,44128
2022-10-27T12:51:43.348Z,46048
2022-10-27T12:52:43.952Z,52640
2022-10-27T12:53:44.553Z,59584
2022-10-27T12:55:45.780Z,71296
2022-10-27T12:56:46.403Z,78208
2022-10-27T12:57:47.022Z,70336
2022-10-27T12:58:47.624Z,69600
2022-10-27T12:59:48.243Z,70656
2022-10-27T13:00:48.908Z,72672
2022-10-27T13:01:49.589Z,77504
2022-10-27T13:02:50.512Z,74848
2022-10-27T13:03:51.355Z,64192
2022-10-27T13:04:51.973Z,59200
2022-10-27T13:05:52.580Z,57920
2022-10-27T13:06:53.175Z,56992
2022-10-27T13:07:57.100Z,58816
2022-10-27T13:08:55.372Z,59360
2022-10-27T13:09:55.975Z,54432
2022-10-27T13:10:56.575Z,51168
2022-10-27T13:11:57.176Z,54144
2022-10-27T13:12:57.778Z,53472
2022-10-27T13:13:58.378Z,54976
2022-10-27T13:14:58.981Z,59712
2022-10-27T13:15:59.580Z,52096
2022-10-27T13:17:00.220Z,52544
2022-10-27T13:18:00.822Z,47808
2022-10-27T13:19:01.443Z,44736
2022-10-27T13:20:05.211Z,41888
2022-10-27T13:21:03.640Z,37728
2022-10-27T13:22:04.262Z,32864
2022-10-27T13:23:04.865Z,39360
2022-10-27T13:24:05.465Z,45184
2022-10-27T13:25:06.069Z,39968
2022-10-27T13:26:06.667Z,37216
2022-10-27T13:27:07.269Z,30368
2022-10-27T13:28:07.870Z,29280
2022-10-27T13:29:08.473Z,36768
2022-10-27T13:30:09.099Z,45856
2022-10-27T13:31:09.697Z,37024
2022-10-27T13:32:10.294Z,38464
2022-10-27T13:33:10.897Z,32320
2022-10-27T13:34:11.498Z,39744
2022-10-27T13:35:12.099Z,40160
2022-10-27T13:36:12.703Z,44384
2022-10-27T13:37:13.303Z,45984
2022-10-27T13:38:13.906Z,45344
2022-10-27T13:39:14.507Z,45984
2022-10-27T13:40:15.107Z,43328
2022-10-27T13:41:15.707Z,39968
2022-10-27T13:42:16.349Z,41248
2022-10-27T13:43:16.923Z,41152
2022-10-27T13:44:17.526Z,37824
2022-10-27T13:45:18.127Z,35552
2022-10-27T13:46:18.729Z,34304
2022-10-27T13:47:19.329Z,30784
2022-10-27T13:48:19.933Z,30240
2022-10-27T13:49:20.533Z,27232
2022-10-27T13:50:21.132Z,27200
2022-10-27T13:51:28.688Z,29280
2022-10-27T13:52:23.327Z,31840
2022-10-27T13:53:23.927Z,34464
2022-10-27T13:54:24.530Z,34752
2022-10-27T13:55:25.130Z,36128
2022-10-27T13:56:25.734Z,34784
2022-10-27T13:57:26.407Z,31776
2022-10-27T13:58:26.988Z,35968
2022-10-27T13:59:27.637Z,36320
2022-10-27T14:00:28.202Z,38176
2022-10-27T14:01:28.922Z,39616